createdAt,value
2019-05-16T00:00:35.561Z,0.43
2019-05-16T00:01:35.442Z,0.69
2019-05-16T00:02:37.748Z,0.01
2019-05-16T00:03:35.515Z,0.77
2019-05-16T00:04:37.714Z,0.97
2019-05-16T00:05:47.737Z,1.23
2019-05-16T00:06:36.116Z,0.07
2019-05-16T00:07:35.458Z,0.29
2019-05-16T00:08:35.578Z,0.31
2019-05-16T00:09:35.550Z,0.71
2019-05-16T00:10:35.839Z,0.54
2019-05-16T00:11:38.440Z,0.73
2019-05-16T00:12:35.525Z,0.31
2019-05-16T00:13:35.520Z,0.31
2019-05-16T00:14:36.000Z,0.29
2019-05-16T00:15:37.705Z,0.44
2019-05-16T00:16:37.846Z,0.00
2019-05-16T00:17:38.582Z,0.38
2019-05-16T00:18:35.893Z,0.42
2019-05-16T00:19:38.161Z,0.38
2019-05-16T00:20:35.541Z,0.38
2019-05-16T00:21:35.520Z,0.44
2019-05-16T00:22:35.681Z,0.24
2019-05-16T00:23:37.691Z,0.03
2019-05-16T00:24:35.586Z,0.44
2019-05-16T00:25:35.521Z,0.00
2019-05-16T00:26:38.578Z,0.18
2019-05-16T00:27:35.544Z,0.81
2019-05-16T00:28:37.868Z,0.26
2019-05-16T00:29:38.165Z,0.00
2019-05-16T00:30:35.668Z,0.19
2019-05-16T00:31:38.227Z,0.45
2019-05-16T00:32:35.607Z,0.20
2019-05-16T00:33:38.010Z,0.03
2019-05-16T00:34:35.536Z,0.26
2019-05-16T00:35:35.486Z,0.10
2019-05-16T00:36:35.594Z,0.04
2019-05-16T00:37:35.866Z,0.73
2019-05-16T00:38:37.854Z,0.15
2019-05-16T00:39:35.918Z,0.00
2019-05-16T00:40:38.038Z,0.00
2019-05-16T00:41:38.391Z,0.36
2019-05-16T00:42:35.576Z,0.04
2019-05-16T00:43:37.880Z,0.45
2019-05-16T00:44:38.544Z,0.00
2019-05-16T00:45:38.287Z,0.37
2019-05-16T00:46:35.553Z,0.08
2019-05-16T00:47:35.867Z,0.15
2019-05-16T00:48:35.544Z,0.30
2019-05-16T00:49:36.000Z,1.20
2019-05-16T00:50:36.234Z,0.52
2019-05-16T00:51:37.699Z,0.12
2019-05-16T00:52:35.901Z,0.95
2019-05-16T00:53:38.081Z,0.75
2019-05-16T00:54:35.589Z,0.28
2019-05-16T00:55:35.945Z,0.53
2019-05-16T00:56:38.151Z,0.01
2019-05-16T00:57:35.605Z,0.25
2019-05-16T00:58:37.933Z,0.28
2019-05-16T00:59:35.547Z,0.38
2019-05-16T01:00:37.659Z,0.07
2019-05-16T01:01:35.906Z,0.16
2019-05-16T01:02:35.529Z,0.00
2019-05-16T01:03:37.685Z,0.00
2019-05-16T01:04:35.563Z,0.22
2019-05-16T01:05:35.529Z,0.15
2019-05-16T01:06:37.899Z,0.61
2019-05-16T01:07:35.914Z,0.31
2019-05-16T01:08:38.344Z,0.12
2019-05-16T01:09:35.603Z,0.14
2019-05-16T01:10:35.598Z,0.00
2019-05-16T01:11:35.587Z,0.34
2019-05-16T01:12:38.792Z,1.06
2019-05-16T01:13:37.910Z,0.49
2019-05-16T01:14:38.561Z,0.17
2019-05-16T01:15:37.872Z,0.01
2019-05-16T01:16:35.689Z,0.62
2019-05-16T01:17:35.573Z,0.62
2019-05-16T01:18:37.828Z,0.40
2019-05-16T01:19:37.878Z,0.07
2019-05-16T01:20:38.452Z,0.86
2019-05-16T01:21:35.886Z,0.53
2019-05-16T01:22:35.576Z,0.30
2019-05-16T01:23:35.588Z,0.37
2019-05-16T01:24:38.578Z,0.50
2019-05-16T01:25:36.144Z,0.15
2019-05-16T01:26:35.619Z,0.00
2019-05-16T01:27:38.362Z,0.03
2019-05-16T01:28:37.706Z,0.85
2019-05-16T01:29:38.375Z,0.06
2019-05-16T01:30:37.918Z,0.01
2019-05-16T01:31:37.853Z,0.90
2019-05-16T01:32:38.526Z,0.45
2019-05-16T01:33:35.529Z,0.71
2019-05-16T01:34:37.679Z,0.02
2019-05-16T01:35:38.553Z,0.49
2019-05-16T01:36:38.020Z,0.64
2019-05-16T01:37:38.111Z,0.00
2019-05-16T01:38:35.573Z,0.00
2019-05-16T01:39:38.024Z,0.00
2019-05-16T01:40:38.535Z,0.00
2019-05-16T01:41:38.207Z,0.00
2019-05-16T01:42:35.561Z,0.31
2019-05-16T01:43:37.696Z,0.10
2019-05-16T01:44:35.585Z,0.12
2019-05-16T01:45:35.869Z,0.00
2019-05-16T01:46:38.858Z,0.42
2019-05-16T01:47:35.579Z,0.63
2019-05-16T01:48:37.968Z,0.23
2019-05-16T01:49:37.984Z,0.43
2019-05-16T01:50:38.601Z,0.29
2019-05-16T01:51:37.914Z,0.43
2019-05-16T01:52:38.065Z,0.08
2019-05-16T01:53:35.611Z,0.16
2019-05-16T01:54:35.574Z,0.07
2019-05-16T01:55:38.130Z,0.23
2019-05-16T01:56:38.569Z,0.04
2019-05-16T01:57:35.926Z,0.55
2019-05-16T01:58:35.538Z,0.65
2019-05-16T01:59:37.805Z,0.66
2019-05-16T02:00:40.377Z,0.10
2019-05-16T02:01:37.704Z,0.00
2019-05-16T02:02:38.333Z,0.00
2019-05-16T02:03:38.610Z,0.44
2019-05-16T02:04:37.829Z,0.01
2019-05-16T02:05:35.626Z,0.00
2019-05-16T02:06:50.085Z,0.15
2019-05-16T02:07:35.683Z,0.00
2019-05-16T02:08:37.912Z,0.18
2019-05-16T02:09:35.591Z,0.70
2019-05-16T02:10:37.903Z,0.16
2019-05-16T02:11:35.623Z,0.04
2019-05-16T02:12:38.191Z,0.46
2019-05-16T02:13:35.916Z,0.22
2019-05-16T02:14:35.979Z,0.00
2019-05-16T02:15:38.105Z,0.72
2019-05-16T02:16:38.342Z,0.31
2019-05-16T02:17:38.413Z,1.08
2019-05-16T02:18:35.608Z,0.30
2019-05-16T02:19:35.584Z,0.25
2019-05-16T02:20:35.642Z,0.27
2019-05-16T02:21:35.644Z,0.16
2019-05-16T02:22:35.620Z,0.51
2019-05-16T02:23:38.188Z,0.25
2019-05-16T02:24:38.874Z,0.00
2019-05-16T02:25:40.555Z,0.71
2019-05-16T02:26:35.696Z,0.67
2019-05-16T02:27:38.187Z,0.61
2019-05-16T02:28:40.152Z,0.01
2019-05-16T02:29:35.673Z,0.54
2019-05-16T02:30:35.966Z,0.39
2019-05-16T02:31:35.593Z,0.58
2019-05-16T02:32:35.712Z,0.10
2019-05-16T02:33:36.095Z,0.25
2019-05-16T02:34:36.219Z,0.00
2019-05-16T02:35:35.945Z,0.00
2019-05-16T02:36:35.917Z,0.00
2019-05-16T02:37:35.656Z,0.16
2019-05-16T02:38:35.591Z,0.53
2019-05-16T02:39:35.631Z,0.05
2019-05-16T02:40:35.973Z,0.18
2019-05-16T02:41:35.586Z,0.12
2019-05-16T02:42:35.691Z,0.00
2019-05-16T02:43:35.965Z,0.00
2019-05-16T02:44:35.921Z,0.00
2019-05-16T02:45:36.201Z,0.00
2019-05-16T02:46:35.959Z,0.00
2019-05-16T02:47:36.044Z,0.58
2019-05-16T02:48:35.773Z,0.53
2019-05-16T02:49:36.010Z,0.52
2019-05-16T02:50:35.601Z,0.10
2019-05-16T02:51:35.695Z,0.00
2019-05-16T02:52:35.972Z,0.26
2019-05-16T02:53:35.642Z,0.43
2019-05-16T02:54:35.712Z,0.38
2019-05-16T02:55:35.671Z,0.21
2019-05-16T02:56:35.752Z,0.58
2019-05-16T02:57:35.675Z,0.75
2019-05-16T02:58:35.991Z,0.51
2019-05-16T02:59:35.608Z,0.15
2019-05-16T03:00:35.711Z,0.30
2019-05-16T03:01:35.751Z,0.39
2019-05-16T03:02:36.043Z,0.28
2019-05-16T03:03:35.747Z,0.00
2019-05-16T03:04:39.895Z,0.03
2019-05-16T03:05:35.745Z,0.06
2019-05-16T03:06:35.749Z,0.00
2019-05-16T03:07:40.597Z,0.00
2019-05-16T03:08:35.879Z,0.00
2019-05-16T03:09:35.694Z,0.00
2019-05-16T03:10:36.017Z,0.00
2019-05-16T03:11:36.355Z,0.00
2019-05-16T03:12:36.038Z,0.00
2019-05-16T03:13:36.740Z,0.00
2019-05-16T03:14:36.119Z,0.00
2019-05-16T03:15:35.697Z,0.01
2019-05-16T03:16:35.678Z,0.00
2019-05-16T03:17:36.005Z,0.00
2019-05-16T03:18:35.681Z,0.00
2019-05-16T03:19:35.726Z,0.00
2019-05-16T03:20:35.995Z,0.00
2019-05-16T03:21:36.047Z,0.00
2019-05-16T03:22:35.675Z,0.00
2019-05-16T03:23:35.995Z,0.00
2019-05-16T03:24:35.777Z,0.21
2019-05-16T03:25:35.895Z,0.00
2019-05-16T03:26:36.361Z,0.00
2019-05-16T03:27:35.720Z,0.18
2019-05-16T03:28:36.386Z,0.00
2019-05-16T03:29:35.897Z,0.00
2019-05-16T03:30:35.831Z,0.00
2019-05-16T03:31:35.760Z,0.00
2019-05-16T03:32:35.666Z,0.09
2019-05-16T03:33:43.398Z,0.00
2019-05-16T03:34:36.050Z,0.00
2019-05-16T03:35:35.700Z,0.00
2019-05-16T03:36:36.361Z,0.00
2019-05-16T03:37:51.514Z,0.00
2019-05-16T03:38:35.689Z,0.15
2019-05-16T03:39:35.676Z,0.00
2019-05-16T03:40:35.714Z,0.00
2019-05-16T03:41:35.686Z,0.00
2019-05-16T03:42:35.692Z,0.00
2019-05-16T03:43:35.715Z,0.00
2019-05-16T03:44:35.703Z,0.00
2019-05-16T03:45:36.001Z,0.00
2019-05-16T03:46:36.461Z,0.00
2019-05-16T03:47:36.383Z,0.00
2019-05-16T03:48:36.192Z,0.00
2019-05-16T03:49:35.731Z,0.00
2019-05-16T03:50:36.242Z,0.00
2019-05-16T03:51:35.661Z,0.00
2019-05-16T03:52:39.252Z,0.00
2019-05-16T03:53:36.306Z,0.00
2019-05-16T03:54:35.855Z,0.00
2019-05-16T03:55:36.049Z,0.00
2019-05-16T03:56:36.236Z,0.00
2019-05-16T03:57:36.023Z,0.00
2019-05-16T03:58:36.080Z,0.00
2019-05-16T03:59:36.715Z,0.00
2019-05-16T04:00:35.989Z,0.00
2019-05-16T04:01:36.437Z,0.00
2019-05-16T04:02:36.651Z,0.00
2019-05-16T04:03:35.670Z,0.43
2019-05-16T04:04:35.797Z,0.11
2019-05-16T04:05:37.071Z,0.24
2019-05-16T04:06:36.469Z,0.00
2019-05-16T04:07:35.764Z,0.05
2019-05-16T04:08:36.383Z,0.06
2019-05-16T04:09:35.678Z,0.07
2019-05-16T04:10:35.801Z,0.17
2019-05-16T04:11:35.736Z,0.26
2019-05-16T04:12:36.752Z,0.08
2019-05-16T04:13:37.102Z,0.00
2019-05-16T04:14:35.721Z,0.37
2019-05-16T04:15:36.301Z,0.41
2019-05-16T04:16:36.001Z,0.13
2019-05-16T04:17:36.169Z,0.00
2019-05-16T04:18:36.014Z,0.00
2019-05-16T04:19:36.210Z,0.14
2019-05-16T04:20:35.772Z,0.00
2019-05-16T04:21:35.720Z,0.00
2019-05-16T04:22:35.805Z,0.00
2019-05-16T04:23:35.749Z,0.00
2019-05-16T04:24:36.048Z,0.00
2019-05-16T04:25:35.661Z,0.00
2019-05-16T04:26:36.475Z,0.00
2019-05-16T04:27:36.499Z,0.00
2019-05-16T04:28:35.668Z,0.00
2019-05-16T04:29:36.099Z,0.00
2019-05-16T04:30:35.735Z,0.00
2019-05-16T04:31:36.030Z,0.00
2019-05-16T04:32:35.815Z,0.00
2019-05-16T04:33:35.723Z,0.00
2019-05-16T04:34:35.708Z,0.00
2019-05-16T04:35:36.463Z,0.00
2019-05-16T04:36:35.862Z,0.00
2019-05-16T04:37:35.820Z,0.00
2019-05-16T04:38:41.315Z,0.00
2019-05-16T04:39:35.722Z,0.00
2019-05-16T04:40:38.441Z,0.00
2019-05-16T04:41:35.998Z,0.01
2019-05-16T04:42:35.774Z,0.00
2019-05-16T04:43:37.471Z,0.01
2019-05-16T04:44:35.855Z,0.00
2019-05-16T04:45:36.795Z,0.00
2019-05-16T04:46:35.712Z,0.00
2019-05-16T04:47:36.122Z,0.00
2019-05-16T04:48:35.759Z,0.00
2019-05-16T04:49:35.728Z,0.00
2019-05-16T04:50:36.500Z,0.00
2019-05-16T04:51:36.577Z,0.00
2019-05-16T04:52:36.241Z,0.00
2019-05-16T04:53:35.815Z,0.10
2019-05-16T04:54:35.763Z,0.16
2019-05-16T04:55:36.420Z,0.21
2019-05-16T04:56:35.813Z,0.00
2019-05-16T04:57:36.823Z,0.08
2019-05-16T04:58:36.073Z,0.26
2019-05-16T04:59:35.683Z,0.18
2019-05-16T05:00:35.803Z,0.02
2019-05-16T05:01:35.724Z,0.00
2019-05-16T05:02:36.024Z,0.12
2019-05-16T05:03:36.103Z,0.14
2019-05-16T05:04:35.757Z,0.02
2019-05-16T05:05:36.315Z,0.28
2019-05-16T05:06:36.115Z,0.24
2019-05-16T05:07:35.932Z,0.06
2019-05-16T05:08:47.481Z,0.07
2019-05-16T05:09:35.803Z,0.57
2019-05-16T05:10:35.736Z,0.70
2019-05-16T05:11:35.864Z,0.76
2019-05-16T05:12:35.779Z,0.59
2019-05-16T05:13:35.763Z,0.73
2019-05-16T05:14:36.684Z,0.07
2019-05-16T05:15:36.132Z,0.03
2019-05-16T05:16:36.234Z,0.29
2019-05-16T05:17:35.773Z,0.11
2019-05-16T05:18:35.789Z,0.36
2019-05-16T05:19:36.515Z,0.05
2019-05-16T05:20:36.055Z,0.00
2019-05-16T05:21:36.003Z,0.28
2019-05-16T05:22:36.368Z,1.36
2019-05-16T05:23:36.060Z,0.35
2019-05-16T05:24:36.547Z,0.00
2019-05-16T05:25:35.760Z,0.00
2019-05-16T05:26:35.734Z,0.26
2019-05-16T05:27:36.005Z,1.48
2019-05-16T05:28:35.927Z,0.30
2019-05-16T05:29:36.120Z,0.52
2019-05-16T05:30:35.866Z,0.02
2019-05-16T05:31:35.876Z,1.32
2019-05-16T05:32:36.407Z,0.19
2019-05-16T05:33:36.553Z,0.00
2019-05-16T05:34:36.132Z,0.00
2019-05-16T05:35:35.764Z,0.00
2019-05-16T05:36:35.817Z,0.16
2019-05-16T05:37:35.832Z,0.66
2019-05-16T05:38:35.766Z,0.24
2019-05-16T05:39:36.176Z,0.00
2019-05-16T05:40:36.547Z,0.18
2019-05-16T05:41:36.098Z,0.09
2019-05-16T05:42:36.896Z,0.32
2019-05-16T05:43:36.132Z,0.00
2019-05-16T05:44:36.305Z,0.75
2019-05-16T05:45:35.885Z,0.98
2019-05-16T05:46:36.132Z,0.41
2019-05-16T05:47:36.105Z,0.21
2019-05-16T05:48:36.055Z,0.61
2019-05-16T05:49:35.818Z,0.16
2019-05-16T05:50:36.820Z,0.51
2019-05-16T05:51:36.180Z,0.73
2019-05-16T05:52:35.822Z,0.39
2019-05-16T05:53:36.129Z,0.73
2019-05-16T05:54:36.199Z,0.43
2019-05-16T05:55:35.950Z,0.78
2019-05-16T05:56:36.503Z,0.97
2019-05-16T05:57:36.102Z,0.42
2019-05-16T05:58:35.827Z,0.97
2019-05-16T05:59:37.273Z,1.03
2019-05-16T06:00:35.993Z,1.20
2019-05-16T06:01:35.853Z,0.24
2019-05-16T06:02:36.633Z,0.77
2019-05-16T06:03:35.745Z,0.42
2019-05-16T06:04:36.568Z,0.31
2019-05-16T06:05:35.872Z,0.28
2019-05-16T06:06:35.770Z,0.90
2019-05-16T06:07:35.881Z,0.32
2019-05-16T06:08:35.804Z,0.85
2019-05-16T06:09:35.883Z,1.53
2019-05-16T06:10:35.937Z,0.53
2019-05-16T06:11:36.422Z,1.02
2019-05-16T06:12:35.767Z,0.24
2019-05-16T06:13:36.193Z,0.41
2019-05-16T06:14:36.670Z,0.13
2019-05-16T06:15:35.833Z,0.80
2019-05-16T06:16:40.260Z,0.56
2019-05-16T06:17:35.821Z,0.84
2019-05-16T06:18:35.798Z,1.02
2019-05-16T06:19:35.885Z,1.06
2019-05-16T06:20:36.033Z,1.46
2019-05-16T06:21:35.787Z,0.82
2019-05-16T06:22:35.877Z,0.36
2019-05-16T06:23:35.841Z,0.56
2019-05-16T06:24:35.873Z,0.61
2019-05-16T06:25:35.888Z,0.46
2019-05-16T06:26:36.423Z,2.86
2019-05-16T06:27:36.131Z,2.24
2019-05-16T06:28:35.923Z,2.04
2019-05-16T06:29:36.175Z,0.49
2019-05-16T06:30:35.843Z,0.91
2019-05-16T06:31:37.057Z,2.09
2019-05-16T06:32:35.825Z,1.78
2019-05-16T06:33:35.795Z,1.57
2019-05-16T06:34:36.280Z,1.00
2019-05-16T06:35:35.875Z,2.37
2019-05-16T06:36:35.845Z,2.48
2019-05-16T06:37:35.881Z,1.46
2019-05-16T06:38:35.872Z,0.60
2019-05-16T06:39:42.038Z,1.09
2019-05-16T06:40:36.730Z,0.72
2019-05-16T06:41:36.065Z,0.51
2019-05-16T06:42:35.812Z,1.77
2019-05-16T06:43:35.881Z,3.47
2019-05-16T06:44:35.862Z,1.33
2019-05-16T06:45:36.042Z,1.10
2019-05-16T06:46:48.662Z,1.98
2019-05-16T06:47:36.299Z,1.85
2019-05-16T06:48:36.363Z,1.09
2019-05-16T06:49:36.717Z,0.76
2019-05-16T06:50:35.980Z,0.31
2019-05-16T06:51:36.686Z,1.17
2019-05-16T06:52:35.897Z,1.82
2019-05-16T06:53:35.868Z,0.84
2019-05-16T06:54:36.452Z,0.60
2019-05-16T06:55:35.831Z,2.08
2019-05-16T06:56:35.908Z,0.87
2019-05-16T06:57:35.836Z,1.81
2019-05-16T06:58:45.715Z,1.88
2019-05-16T06:59:36.596Z,1.54
2019-05-16T07:00:35.997Z,1.07
2019-05-16T07:01:35.849Z,1.13
2019-05-16T07:02:36.215Z,1.65
2019-05-16T07:03:35.857Z,2.34
2019-05-16T07:04:35.808Z,0.97
2019-05-16T07:05:36.212Z,1.79
2019-05-16T07:06:53.182Z,1.10
2019-05-16T07:07:35.823Z,1.84
2019-05-16T07:08:36.014Z,1.55
2019-05-16T07:09:35.897Z,0.84
2019-05-16T07:10:35.926Z,1.07
2019-05-16T07:11:36.666Z,0.88
2019-05-16T07:12:36.202Z,1.64
2019-05-16T07:13:35.838Z,1.57
2019-05-16T07:14:35.912Z,0.74
2019-05-16T07:15:36.220Z,0.80
2019-05-16T07:16:35.928Z,1.23
2019-05-16T07:17:35.927Z,1.61
2019-05-16T07:18:36.942Z,1.84
2019-05-16T07:19:35.974Z,1.78
2019-05-16T07:20:36.260Z,1.80
2019-05-16T07:21:36.930Z,0.55
2019-05-16T07:22:36.353Z,0.59
2019-05-16T07:23:36.866Z,1.37
2019-05-16T07:24:36.238Z,1.68
2019-05-16T07:25:36.002Z,2.63
2019-05-16T07:26:37.377Z,2.29
2019-05-16T07:27:35.955Z,3.13
2019-05-16T07:28:35.888Z,1.28
2019-05-16T07:29:36.263Z,0.75
2019-05-16T07:30:35.919Z,2.00
2019-05-16T07:31:35.852Z,2.05
2019-05-16T07:32:35.956Z,2.14
2019-05-16T07:33:35.926Z,1.50
2019-05-16T07:34:36.212Z,0.73
2019-05-16T07:35:35.974Z,1.96
2019-05-16T07:36:35.896Z,1.16
2019-05-16T07:37:35.902Z,2.09
2019-05-16T07:38:37.094Z,3.01
2019-05-16T07:39:38.681Z,2.86
2019-05-16T07:40:36.120Z,2.59
2019-05-16T07:41:35.970Z,3.31
2019-05-16T07:42:35.935Z,1.01
2019-05-16T07:43:36.627Z,1.81
2019-05-16T07:44:35.959Z,2.72
2019-05-16T07:45:37.817Z,1.68
2019-05-16T07:46:35.917Z,2.82
2019-05-16T07:47:35.978Z,2.07
2019-05-16T07:48:40.163Z,2.70
2019-05-16T07:49:35.881Z,1.75
2019-05-16T07:50:36.714Z,2.26
2019-05-16T07:51:35.933Z,2.90
2019-05-16T07:52:36.669Z,1.86
2019-05-16T07:53:36.772Z,2.19
2019-05-16T07:54:35.926Z,2.91
2019-05-16T07:55:35.939Z,3.78
2019-05-16T07:56:35.974Z,1.72
2019-05-16T07:57:35.954Z,1.64
2019-05-16T07:58:36.112Z,0.73
2019-05-16T07:59:36.314Z,2.20
2019-05-16T08:00:49.722Z,2.28
2019-05-16T08:01:35.904Z,3.11
2019-05-16T08:02:36.000Z,3.35
2019-05-16T08:03:35.967Z,1.66
2019-05-16T08:04:36.763Z,1.91
2019-05-16T08:05:36.227Z,2.08
2019-05-16T08:06:36.297Z,0.92
2019-05-16T08:07:36.252Z,2.19
2019-05-16T08:08:36.042Z,1.52
2019-05-16T08:09:35.969Z,1.66
2019-05-16T08:10:40.602Z,2.44
2019-05-16T08:11:36.153Z,1.73
2019-05-16T08:12:35.987Z,1.20
2019-05-16T08:13:35.933Z,1.78
2019-05-16T08:14:36.832Z,1.79
2019-05-16T08:15:36.051Z,2.02
2019-05-16T08:16:36.263Z,3.31
2019-05-16T08:17:36.513Z,2.45
2019-05-16T08:18:35.985Z,1.73
2019-05-16T08:19:35.939Z,1.89
2019-05-16T08:20:37.259Z,1.76
2019-05-16T08:21:35.955Z,1.32
2019-05-16T08:22:35.931Z,2.15
2019-05-16T08:23:36.237Z,1.42
2019-05-16T08:24:36.298Z,2.34
2019-05-16T08:25:36.604Z,2.63
2019-05-16T08:26:40.066Z,4.01
2019-05-16T08:27:35.992Z,3.31
2019-05-16T08:28:36.295Z,2.72
2019-05-16T08:29:36.541Z,2.08
2019-05-16T08:30:36.346Z,2.40
2019-05-16T08:31:35.963Z,0.90
2019-05-16T08:32:35.929Z,2.16
2019-05-16T08:33:36.019Z,3.44
2019-05-16T08:34:35.945Z,1.37
2019-05-16T08:35:35.945Z,1.99
2019-05-16T08:36:36.057Z,1.60
2019-05-16T08:37:42.555Z,1.74
2019-05-16T08:38:35.927Z,2.77
2019-05-16T08:39:36.011Z,2.70
2019-05-16T08:41:35.934Z,2.46
2019-05-16T08:42:36.377Z,2.54
2019-05-16T08:43:36.571Z,2.54
2019-05-16T08:44:35.923Z,1.56
2019-05-16T08:45:36.353Z,3.49
2019-05-16T08:46:36.352Z,2.94
2019-05-16T08:47:35.945Z,3.14
2019-05-16T08:48:36.776Z,2.56
2019-05-16T08:49:36.007Z,3.03
2019-05-16T08:50:36.254Z,3.61
2019-05-16T08:51:36.970Z,3.70
2019-05-16T08:52:36.614Z,2.34
2019-05-16T08:53:35.973Z,2.03
2019-05-16T08:54:36.159Z,1.15
2019-05-16T08:55:37.033Z,1.21
2019-05-16T08:56:36.355Z,3.19
2019-05-16T08:57:36.050Z,3.17
2019-05-16T08:58:36.024Z,3.18
2019-05-16T08:59:36.407Z,1.45
2019-05-16T09:00:36.792Z,0.58
2019-05-16T09:01:36.041Z,1.33
2019-05-16T09:02:36.902Z,1.13
2019-05-16T09:03:36.122Z,2.34
2019-05-16T09:04:36.338Z,1.51
2019-05-16T09:05:36.600Z,1.94
2019-05-16T09:06:36.052Z,1.68
2019-05-16T09:07:36.362Z,2.72
2019-05-16T09:08:36.790Z,3.06
2019-05-16T09:09:44.203Z,2.18
2019-05-16T09:11:44.098Z,2.53
2019-05-16T09:12:37.112Z,2.27
2019-05-16T09:13:37.004Z,2.03
2019-05-16T09:14:38.960Z,1.72
2019-05-16T09:15:38.951Z,2.78
2019-05-16T09:16:37.159Z,2.14
2019-05-16T09:17:38.403Z,2.35
2019-05-16T09:18:38.997Z,1.57
2019-05-16T09:18:41.145Z,2.09
2019-05-16T09:19:36.933Z,1.39
2019-05-16T09:20:37.489Z,2.31
2019-05-16T09:21:38.339Z,2.36
2019-05-16T09:22:37.787Z,1.53
2019-05-16T09:23:38.321Z,2.44
2019-05-16T09:24:37.741Z,2.27
2019-05-16T09:25:37.001Z,0.89
2019-05-16T09:26:38.298Z,2.32
2019-05-16T09:27:38.841Z,2.41
2019-05-16T09:28:38.989Z,1.10
2019-05-16T09:29:36.697Z,3.47
2019-05-16T09:30:37.052Z,3.21
2019-05-16T09:31:38.552Z,2.59
2019-05-16T09:32:37.090Z,1.94
2019-05-16T09:33:37.513Z,1.30
2019-05-16T09:34:37.935Z,1.79
2019-05-16T09:35:38.102Z,1.52
2019-05-16T09:36:37.229Z,2.76
2019-05-16T09:37:37.537Z,2.82
2019-05-16T09:38:38.280Z,2.13
2019-05-16T09:39:37.105Z,2.83
2019-05-16T09:40:38.867Z,1.81
2019-05-16T09:41:47.741Z,1.91
2019-05-16T09:42:37.217Z,0.79
2019-05-16T09:43:38.819Z,0.45
2019-05-16T09:44:37.013Z,0.92
2019-05-16T09:45:38.007Z,0.85
2019-05-16T09:46:37.633Z,2.01
2019-05-16T09:47:38.870Z,1.80
2019-05-16T09:48:38.072Z,1.81
2019-05-16T09:49:37.332Z,2.75
2019-05-16T09:50:37.885Z,1.51
2019-05-16T09:51:37.671Z,2.03
2019-05-16T09:52:36.471Z,0.89
2019-05-16T09:53:36.593Z,1.06
2019-05-16T09:54:37.887Z,2.25
2019-05-16T09:55:37.380Z,2.05
2019-05-16T09:56:37.098Z,2.87
2019-05-16T09:57:37.556Z,3.43
2019-05-16T09:58:37.428Z,1.46
2019-05-16T09:59:37.122Z,3.08
2019-05-16T10:00:37.325Z,3.10
2019-05-16T10:01:37.156Z,2.99
2019-05-16T10:02:36.757Z,2.88
2019-05-16T10:03:37.215Z,3.21
2019-05-16T10:04:36.849Z,2.84
2019-05-16T10:05:37.153Z,1.84
2019-05-16T10:06:37.183Z,0.59
2019-05-16T10:07:38.887Z,0.53
2019-05-16T10:08:37.451Z,2.94
2019-05-16T10:09:42.136Z,2.27
2019-05-16T10:10:36.953Z,2.07
2019-05-16T10:11:41.492Z,2.38
2019-05-16T10:12:37.079Z,1.98
2019-05-16T10:13:37.577Z,1.84
2019-05-16T10:14:37.829Z,1.44
2019-05-16T10:15:37.746Z,2.73
2019-05-16T10:16:37.211Z,2.39
2019-05-16T10:17:37.000Z,2.33
2019-05-16T10:18:37.024Z,2.30
2019-05-16T10:19:36.827Z,3.45
2019-05-16T10:20:36.738Z,3.52
2019-05-16T10:21:37.160Z,0.99
2019-05-16T10:22:37.339Z,1.37
2019-05-16T10:23:36.720Z,1.46
2019-05-16T10:24:37.508Z,1.67
2019-05-16T10:25:37.722Z,2.87
2019-05-16T10:26:37.287Z,2.71
2019-05-16T10:27:36.862Z,3.25
2019-05-16T10:28:38.334Z,1.07
2019-05-16T10:29:37.810Z,2.18
2019-05-16T10:30:37.689Z,1.63
2019-05-16T10:31:48.209Z,1.28
2019-05-16T10:32:36.514Z,2.68
2019-05-16T10:33:39.062Z,1.46
2019-05-16T10:34:37.071Z,1.71
2019-05-16T10:35:37.457Z,2.08
2019-05-16T10:36:37.324Z,1.11
2019-05-16T10:37:37.614Z,2.14
2019-05-16T10:38:37.487Z,1.93
2019-05-16T10:39:37.430Z,0.97
2019-05-16T10:40:36.892Z,0.92
2019-05-16T10:41:37.089Z,2.72
2019-05-16T10:42:37.914Z,2.52
2019-05-16T10:43:37.071Z,2.21
2019-05-16T10:44:38.331Z,1.19
2019-05-16T10:45:36.879Z,1.86
2019-05-16T10:46:37.671Z,2.64
2019-05-16T10:47:37.088Z,2.08
2019-05-16T10:48:37.546Z,1.22
2019-05-16T10:49:38.800Z,0.86
2019-05-16T10:50:36.963Z,2.67
2019-05-16T10:51:37.752Z,1.59
2019-05-16T10:52:36.819Z,2.25
2019-05-16T10:54:00.911Z,2.39
2019-05-16T10:54:36.948Z,2.44
2019-05-16T10:55:36.808Z,0.91
2019-05-16T10:56:40.089Z,2.25
2019-05-16T10:57:37.815Z,1.09
2019-05-16T10:58:47.114Z,1.04
2019-05-16T10:59:57.951Z,0.90
2019-05-16T11:01:04.965Z,3.79
2019-05-16T11:01:36.693Z,1.69
2019-05-16T11:02:37.124Z,0.52
2019-05-16T11:03:36.222Z,0.95
2019-05-16T11:04:52.901Z,1.59
2019-05-16T11:05:39.402Z,2.06
2019-05-16T11:06:37.279Z,2.92
2019-05-16T11:07:37.127Z,1.34
2019-05-16T11:08:39.528Z,2.23
2019-05-16T11:09:39.128Z,1.93
2019-05-16T11:10:37.301Z,1.38
2019-05-16T11:11:36.810Z,1.98
2019-05-16T11:12:47.627Z,2.42
2019-05-16T11:13:37.047Z,1.76
2019-05-16T11:14:37.121Z,1.17
2019-05-16T11:15:37.492Z,1.19
2019-05-16T11:16:36.832Z,2.28
2019-05-16T11:17:37.276Z,1.28
2019-05-16T11:18:37.625Z,1.10
2019-05-16T11:19:37.220Z,1.48
2019-05-16T11:20:37.381Z,1.10
2019-05-16T11:21:37.720Z,1.16
2019-05-16T11:22:37.137Z,1.09
2019-05-16T11:23:36.822Z,1.00
2019-05-16T11:24:37.763Z,1.06
2019-05-16T11:25:36.762Z,2.20
2019-05-16T11:26:36.761Z,2.48
2019-05-16T11:27:37.628Z,1.51
2019-05-16T11:28:36.979Z,1.76
2019-05-16T11:29:36.675Z,2.40
2019-05-16T11:30:37.643Z,2.41
2019-05-16T11:31:37.284Z,1.51
2019-05-16T11:32:37.489Z,1.41
2019-05-16T11:33:37.227Z,1.19
2019-05-16T11:34:37.379Z,2.40
2019-05-16T11:35:38.080Z,2.89
2019-05-16T11:36:37.594Z,3.10
2019-05-16T11:37:37.456Z,2.14
2019-05-16T11:38:37.872Z,4.92
2019-05-16T11:39:37.078Z,2.10
2019-05-16T11:40:36.512Z,2.38
2019-05-16T11:41:36.196Z,2.96
2019-05-16T11:42:37.828Z,1.65
2019-05-16T11:43:36.715Z,1.23
2019-05-16T11:44:38.056Z,2.27
2019-05-16T11:45:36.836Z,3.60
2019-05-16T11:46:37.467Z,3.75
2019-05-16T11:47:36.838Z,3.61
2019-05-16T11:48:37.779Z,2.02
2019-05-16T11:49:36.867Z,4.49
2019-05-16T11:50:37.320Z,3.92
2019-05-16T11:51:38.366Z,2.33
2019-05-16T11:52:36.167Z,1.53
2019-05-16T11:53:37.842Z,1.51
2019-05-16T11:54:37.398Z,1.98
2019-05-16T11:55:50.363Z,3.88
2019-05-16T11:56:37.028Z,3.50
2019-05-16T11:57:37.924Z,3.33
2019-05-16T11:58:37.062Z,2.35
2019-05-16T11:59:37.382Z,2.89
2019-05-16T12:00:37.284Z,3.92
2019-05-16T12:01:37.087Z,2.06
2019-05-16T12:02:38.097Z,3.16
2019-05-16T12:03:37.372Z,1.88
2019-05-16T12:04:37.499Z,1.47
2019-05-16T12:05:37.458Z,3.41
2019-05-16T12:06:37.420Z,2.64
2019-05-16T12:07:43.797Z,3.09
2019-05-16T12:08:37.131Z,3.25
2019-05-16T12:10:37.119Z,4.34
2019-05-16T12:11:38.298Z,4.60
2019-05-16T12:12:37.200Z,3.67
2019-05-16T12:13:36.917Z,3.56
2019-05-16T12:14:36.759Z,1.68
2019-05-16T12:15:36.677Z,2.27
2019-05-16T12:16:37.983Z,3.04
2019-05-16T12:17:36.157Z,1.10
2019-05-16T12:18:37.346Z,2.64
2019-05-16T12:19:43.456Z,3.77
2019-05-16T12:20:36.173Z,2.18
2019-05-16T12:21:36.301Z,3.30
2019-05-16T12:22:37.769Z,2.45
2019-05-16T12:23:37.229Z,1.93
2019-05-16T12:24:38.831Z,1.61
2019-05-16T12:25:36.913Z,1.39
2019-05-16T12:26:37.245Z,2.21
2019-05-16T12:27:42.128Z,3.06
2019-05-16T12:28:36.840Z,2.31
2019-05-16T12:29:37.309Z,1.78
2019-05-16T12:30:40.112Z,0.99
2019-05-16T12:31:37.368Z,3.29
2019-05-16T12:32:36.703Z,3.24
2019-05-16T12:33:37.377Z,3.56
2019-05-16T12:34:36.835Z,2.56
2019-05-16T12:35:36.884Z,3.48
2019-05-16T12:36:37.904Z,3.71
2019-05-16T12:37:37.398Z,3.04
2019-05-16T12:38:37.954Z,2.06
2019-05-16T12:39:37.882Z,1.35
2019-05-16T12:40:37.627Z,1.05
2019-05-16T12:41:40.960Z,1.05
2019-05-16T12:42:36.575Z,2.13
2019-05-16T12:43:46.143Z,0.88
2019-05-16T12:44:37.353Z,2.03
2019-05-16T12:45:38.654Z,1.17
2019-05-16T12:46:36.587Z,1.59
2019-05-16T12:47:37.541Z,1.20
2019-05-16T12:48:37.457Z,1.00
2019-05-16T12:49:36.646Z,1.11
2019-05-16T12:50:38.804Z,2.41
2019-05-16T12:51:36.962Z,1.48
2019-05-16T12:52:38.321Z,1.79
2019-05-16T12:53:36.739Z,1.11
2019-05-16T12:54:37.151Z,1.77
2019-05-16T12:55:36.977Z,2.37
2019-05-16T12:56:37.684Z,1.22
2019-05-16T12:57:38.310Z,1.49
2019-05-16T12:58:41.641Z,2.82
2019-05-16T12:59:36.859Z,1.64
2019-05-16T13:00:37.092Z,1.89
2019-05-16T13:01:38.511Z,1.37
2019-05-16T13:02:37.855Z,1.84
2019-05-16T13:03:37.870Z,1.56
2019-05-16T13:04:37.829Z,3.44
2019-05-16T13:05:37.591Z,4.79
2019-05-16T13:06:37.116Z,3.58
2019-05-16T13:07:37.681Z,3.33
2019-05-16T13:08:37.484Z,2.66
2019-05-16T13:09:37.040Z,2.99
2019-05-16T13:10:37.903Z,1.05
2019-05-16T13:11:37.706Z,1.48
2019-05-16T13:12:37.840Z,0.80
2019-05-16T13:13:37.462Z,1.58
2019-05-16T13:14:40.165Z,1.97
2019-05-16T13:15:37.939Z,2.33
2019-05-16T13:16:37.580Z,1.89
2019-05-16T13:17:37.251Z,2.37
2019-05-16T13:18:36.929Z,2.55
2019-05-16T13:19:43.215Z,2.30
2019-05-16T13:20:39.297Z,1.81